sensor_id;sensor_type;location;lat;lon;timestamp;pressure;altitude;pressure_sealevel;temperature;humidity
24962;BME280;12992;50.884;13.668;2022-09-17T00:00:40;96188.28;;;9.61;100.00
24962;BME280;12992;50.884;13.668;2022-09-17T00:03:07;96187.22;;;9.57;100.00
24962;BME280;12992;50.884;13.668;2022-09-17T00:05:32;96188.56;;;9.59;100.00
24962;BME280;12992;50.884;13.668;2022-09-17T00:07:58;96187.22;;;9.57;100.00
24962;BME280;12992;50.884;13.668;2022-09-17T00:10:23;96188.56;;;9.59;100.00
24962;BME280;12992;50.884;13.668;2022-09-17T00:12:49;96186.69;;;9.55;100.00
24962;BME280;12992;50.884;13.668;2022-09-17T00:15:14;96201.06;;;9.60;100.00
24962;BME280;12992;50.884;13.668;2022-09-17T00:17:40;96197.00;;;9.63;100.00
24962;BME280;12992;50.884;13.668;2022-09-17T00:20:06;96208.13;;;9.67;100.00
24962;BME280;12992;50.884;13.668;2022-09-17T00:22:34;96210.03;;;9.66;100.00
24962;BME280;12992;50.884;13.668;2022-09-17T00:25:00;96218.44;;;9.70;100.00
24962;BME280;12992;50.884;13.668;2022-09-17T00:27:25;96213.53;;;9.72;100.00
24962;BME280;12992;50.884;13.668;2022-09-17T00:29:50;96216.00;;;9.73;100.00
24962;BME280;12992;50.884;13.668;2022-09-17T00:32:15;96202.41;;;9.73;100.00
24962;BME280;12992;50.884;13.668;2022-09-17T00:34:41;96200.78;;;9.72;100.00
24962;BME280;12992;50.884;13.668;2022-09-17T00:37:07;96193.69;;;9.71;100.00
24962;BME280;12992;50.884;13.668;2022-09-17T00:39:32;96186.13;;;9.63;100.00
24962;BME280;12992;50.884;13.668;2022-09-17T00:41:57;96194.00;;;9.59;100.00
24962;BME280;12992;50.884;13.668;2022-09-17T00:44:44;96202.44;;;9.53;100.00
24962;BME280;12992;50.884;13.668;2022-09-17T00:49:48;96191.88;;;9.46;100.00
24962;BME280;12992;50.884;13.668;2022-09-17T00:52:20;96185.63;;;9.46;100.00
24962;BME280;12992;50.884;13.668;2022-09-17T00:54:53;96194.84;;;9.55;100.00
24962;BME280;12992;50.884;13.668;2022-09-17T00:57:20;96195.91;;;9.59;100.00
24962;BME280;12992;50.884;13.668;2022-09-17T00:59:46;96194.81;;;9.65;100.00
24962;BME280;12992;50.884;13.668;2022-09-17T01:02:11;96194.25;;;9.68;100.00
24962;BME280;12992;50.884;13.668;2022-09-17T01:04:37;96192.63;;;9.72;100.00
24962;BME280;12992;50.884;13.668;2022-09-17T01:09:44;96177.38;;;9.71;100.00
24962;BME280;12992;50.884;13.668;2022-09-17T01:15:40;96186.38;;;9.67;100.00
24962;BME280;12992;50.884;13.668;2022-09-17T01:24:00;96170.63;;;9.63;100.00
24962;BME280;12992;50.884;13.668;2022-09-17T01:32:30;96192.38;;;9.63;100.00
24962;BME280;12992;50.884;13.668;2022-09-17T01:40:24;96194.25;;;9.68;100.00
24962;BME280;12992;50.884;13.668;2022-09-17T01:42:59;96191.25;;;9.70;100.00
24962;BME280;12992;50.884;13.668;2022-09-17T01:45:34;96200.22;;;9.70;100.00
24962;BME280;12992;50.884;13.668;2022-09-17T01:48:17;96207.84;;;9.73;100.00
24962;BME280;12992;50.884;13.668;2022-09-17T01:50:51;96210.28;;;9.75;100.00
24962;BME280;12992;50.884;13.668;2022-09-17T01:53:20;96202.94;;;9.75;100.00
24962;BME280;12992;50.884;13.668;2022-09-17T01:55:49;96197.47;;;9.75;100.00
24962;BME280;12992;50.884;13.668;2022-09-17T01:58:25;96191.25;;;9.75;100.00
24962;BME280;12992;50.884;13.668;2022-09-17T02:00:59;96188.81;;;9.73;100.00
24962;BME280;12992;50.884;13.668;2022-09-17T02:03:56;96189.63;;;9.74;100.00
24962;BME280;12992;50.884;13.668;2022-09-17T02:06:28;96192.34;;;9.74;100.00
24962;BME280;12992;50.884;13.668;2022-09-17T02:09:13;96197.19;;;9.77;100.00
24962;BME280;12992;50.884;13.668;2022-09-17T02:11:44;96194.78;;;9.75;100.00
24962;BME280;12992;50.884;13.668;2022-09-17T02:14:20;96189.91;;;9.72;100.00
24962;BME280;12992;50.884;13.668;2022-09-17T02:16:51;96189.31;;;9.75;100.00
24962;BME280;12992;50.884;13.668;2022-09-17T02:19:20;96193.16;;;9.74;100.00
24962;BME280;12992;50.884;13.668;2022-09-17T02:22:02;96182.81;;;9.71;100.00
24962;BME280;12992;50.884;13.668;2022-09-17T02:27:17;96192.56;;;9.77;100.00
24962;BME280;12992;50.884;13.668;2022-09-17T02:29:44;96181.47;;;9.74;100.00
24962;BME280;12992;50.884;13.668;2022-09-17T02:32:11;96182.28;;;9.74;100.00
24962;BME280;12992;50.884;13.668;2022-09-17T02:34:37;96191.25;;;9.75;100.00
24962;BME280;12992;50.884;13.668;2022-09-17T02:37:03;96183.66;;;9.67;100.00
24962;BME280;12992;50.884;13.668;2022-09-17T02:39:30;96178.78;;;9.58;100.00
24962;BME280;12992;50.884;13.668;2022-09-17T02:45:17;96184.22;;;9.58;100.00
24962;BME280;12992;50.884;13.668;2022-09-17T02:48:19;96185.84;;;9.59;100.00
24962;BME280;12992;50.884;13.668;2022-09-17T02:59:29;96202.69;;;9.61;100.00
24962;BME280;12992;50.884;13.668;2022-09-17T03:02:00;96202.97;;;9.60;100.00
24962;BME280;12992;50.884;13.668;2022-09-17T03:04:28;96194.53;;;9.61;100.00
24962;BME280;12992;50.884;13.668;2022-09-17T03:06:54;96205.69;;;9.60;100.00
24962;BME280;12992;50.884;13.668;2022-09-17T03:09:20;96211.41;;;9.58;100.00
24962;BME280;12992;50.884;13.668;2022-09-17T03:11:46;96191.84;;;9.56;100.00
24962;BME280;12992;50.884;13.668;2022-09-17T03:14:11;96207.34;;;9.56;100.00
24962;BME280;12992;50.884;13.668;2022-09-17T03:16:37;96205.16;;;9.58;100.00
24962;BME280;12992;50.884;13.668;2022-09-17T03:19:02;96211.41;;;9.58;100.00
24962;BME280;12992;50.884;13.668;2022-09-17T03:21:27;96211.16;;;9.55;100.00
24962;BME280;12992;50.884;13.668;2022-09-17T03:23:53;96217.13;;;9.57;100.00
24962;BME280;12992;50.884;13.668;2022-09-17T03:26:18;96211.41;;;9.53;100.00
24962;BME280;12992;50.884;13.668;2022-09-17T03:28:43;96216.59;;;9.50;100.00
24962;BME280;12992;50.884;13.668;2022-09-17T03:31:09;96218.75;;;9.53;100.00
24962;BME280;12992;50.884;13.668;2022-09-17T03:33:34;96217.13;;;9.52;100.00
24962;BME280;12992;50.884;13.668;2022-09-17T03:35:59;96224.47;;;9.51;100.00
24962;BME280;12992;50.884;13.668;2022-09-17T03:38:25;96218.22;;;9.51;100.00
24962;BME280;12992;50.884;13.668;2022-09-17T03:41:00;96220.66;;;9.52;100.00
24962;BME280;12992;50.884;13.668;2022-09-17T03:43:27;96228.00;;;9.52;100.00
24962;BME280;12992;50.884;13.668;2022-09-17T03:45:52;96224.22;;;9.48;100.00
24962;BME280;12992;50.884;13.668;2022-09-17T03:48:17;96225.84;;;9.49;100.00
24962;BME280;12992;50.884;13.668;2022-09-17T03:50:43;96224.75;;;9.50;100.00
24962;BME280;12992;50.884;13.668;2022-09-17T03:53:08;96228.56;;;9.49;100.00
24962;BME280;12992;50.884;13.668;2022-09-17T03:55:37;96223.94;;;9.49;100.00
24962;BME280;12992;50.884;13.668;2022-09-17T03:58:02;96234.00;;;9.49;100.00
24962;BME280;12992;50.884;13.668;2022-09-17T04:00:27;96229.66;;;9.48;100.00
24962;BME280;12992;50.884;13.668;2022-09-17T04:02:52;96229.09;;;9.51;100.00
24962;BME280;12992;50.884;13.668;2022-09-17T04:05:18;96229.63;;;9.53;100.00
24962;BME280;12992;50.884;13.668;2022-09-17T04:07:43;96231.53;;;9.52;100.00
24962;BME280;12992;50.884;13.668;2022-09-17T04:10:08;96228.56;;;9.49;100.00
24962;BME280;12992;50.884;13.668;2022-09-17T04:12:34;96235.38;;;9.46;100.00
24962;BME280;12992;50.884;13.668;2022-09-17T04:14:59;96233.16;;;9.43;100.00
24962;BME280;12992;50.884;13.668;2022-09-17T04:17:24;96240.50;;;9.43;100.00
24962;BME280;12992;50.884;13.668;2022-09-17T04:19:50;96247.84;;;9.42;100.00
24962;BME280;12992;50.884;13.668;2022-09-17T04:22:15;96253.56;;;9.41;100.00
24962;BME280;12992;50.884;13.668;2022-09-17T04:24:40;96250.03;;;9.40;100.00
24962;BME280;12992;50.884;13.668;2022-09-17T04:27:06;96251.13;;;9.39;100.00
24962;BME280;12992;50.884;13.668;2022-09-17T04:29:31;96254.38;;;9.41;100.00
24962;BME280;12992;50.884;13.668;2022-09-17T04:31:56;96254.13;;;9.38;100.00
24962;BME280;12992;50.884;13.668;2022-09-17T04:34:22;96247.31;;;9.35;100.00
24962;BME280;12992;50.884;13.668;2022-09-17T04:36:47;96261.72;;;9.35;100.00
24962;BME280;12992;50.884;13.668;2022-09-17T04:39:12;96256.03;;;9.32;100.00
24962;BME280;12992;50.884;13.668;2022-09-17T04:41:37;96251.41;;;9.32;100.00
24962;BME280;12992;50.884;13.668;2022-09-17T04:44:03;96252.22;;;9.33;100.00
24962;BME280;12992;50.884;13.668;2022-09-17T04:46:28;96254.38;;;9.36;100.00
24962;BME280;12992;50.884;13.668;2022-09-17T04:48:54;96251.13;;;9.34;100.00
24962;BME280;12992;50.884;13.668;2022-09-17T04:51:19;96267.16;;;9.35;100.00
24962;BME280;12992;50.884;13.668;2022-09-17T04:53:44;96261.72;;;9.35;100.00
24962;BME280;12992;50.884;13.668;2022-09-17T04:56:10;96267.16;;;9.35;100.00
24962;BME280;12992;50.884;13.668;2022-09-17T04:58:35;96267.16;;;9.41;100.00
24962;BME280;12992;50.884;13.668;2022-09-17T05:01:00;96263.34;;;9.42;100.00
24962;BME280;12992;50.884;13.668;2022-09-17T05:03:26;96278.56;;;9.43;100.00
24962;BME280;12992;50.884;13.668;2022-09-17T05:05:51;96280.47;;;9.42;100.00
24962;BME280;12992;50.884;13.668;2022-09-17T05:08:16;96271.50;;;9.42;100.00
24962;BME280;12992;50.884;13.668;2022-09-17T05:10:42;96268.81;;;9.36;100.00
24962;BME280;12992;50.884;13.668;2022-09-17T05:13:07;96273.38;;;9.36;100.00
24962;BME280;12992;50.884;13.668;2022-09-17T05:15:32;96273.97;;;9.28;100.00
24962;BME280;12992;50.884;13.668;2022-09-17T05:17:58;96273.97;;;9.28;100.00
24962;BME280;12992;50.884;13.668;2022-09-17T05:20:23;96279.13;;;9.29;100.00
24962;BME280;12992;50.884;13.668;2022-09-17T05:22:50;96282.38;;;9.31;100.00
24962;BME280;12992;50.884;13.668;2022-09-17T05:25:17;96282.66;;;9.30;100.00
24962;BME280;12992;50.884;13.668;2022-09-17T05:27:43;96280.19;;;9.33;100.00
24962;BME280;12992;50.884;13.668;2022-09-17T05:30:10;96290.25;;;9.38;100.00
24962;BME280;12992;50.884;13.668;2022-09-17T05:32:36;96290.53;;;9.36;100.00
24962;BME280;12992;50.884;13.668;2022-09-17T05:35:03;96292.16;;;9.43;100.00
24962;BME280;12992;50.884;13.668;2022-09-17T05:37:28;96288.34;;;9.39;100.00
24962;BME280;12992;50.884;13.668;2022-09-17T05:39:54;96286.97;;;9.36;100.00
24962;BME280;12992;50.884;13.668;2022-09-17T05:42:19;96287.25;;;9.34;100.00
24962;BME280;12992;50.884;13.668;2022-09-17T05:44:44;96281.81;;;9.34;100.00
24962;BME280;12992;50.884;13.668;2022-09-17T05:47:10;96285.63;;;9.33;100.00
24962;BME280;12992;50.884;13.668;2022-09-17T05:49:35;96289.69;;;9.36;100.00
24962;BME280;12992;50.884;13.668;2022-09-17T05:52:00;96295.97;;;9.36;100.00
24962;BME280;12992;50.884;13.668;2022-09-17T05:54:27;96289.97;;;9.40;100.00
24962;BME280;12992;50.884;13.668;2022-09-17T05:56:53;96288.63;;;9.42;100.00
24962;BME280;12992;50.884;13.668;2022-09-17T05:59:18;96295.97;;;9.47;100.00
24962;BME280;12992;50.884;13.668;2022-09-17T06:01:44;96293.50;;;9.55;100.00
24962;BME280;12992;50.884;13.668;2022-09-17T06:04:10;96302.44;;;9.61;100.00
24962;BME280;12992;50.884;13.668;2022-09-17T06:06:35;96301.91;;;9.64;100.00
24962;BME280;12992;50.884;13.668;2022-09-17T06:09:06;96301.09;;;9.63;100.00
24962;BME280;12992;50.884;13.668;2022-09-17T06:11:32;96298.91;;;9.65;100.00
24962;BME280;12992;50.884;13.668;2022-09-17T06:13:57;96298.63;;;9.62;100.00
24962;BME280;12992;50.884;13.668;2022-09-17T06:16:23;96297.81;;;9.61;100.00
24962;BME280;12992;50.884;13.668;2022-09-17T06:18:48;96304.34;;;9.60;100.00
24962;BME280;12992;50.884;13.668;2022-09-17T06:21:14;96297.00;;;9.66;100.00
24962;BME280;12992;50.884;13.668;2022-09-17T06:23:41;96301.59;;;9.71;100.00
24962;BME280;12992;50.884;13.668;2022-09-17T06:26:07;96307.31;;;9.84;100.00
24962;BME280;12992;50.884;13.668;2022-09-17T06:28:33;96304.03;;;9.87;100.00
24962;BME280;12992;50.884;13.668;2022-09-17T06:31:00;96312.19;;;9.87;100.00
24962;BME280;12992;50.884;13.668;2022-09-17T06:33:26;96318.97;;;9.95;100.00
24962;BME280;12992;50.884;13.668;2022-09-17T06:36:05;96309.69;;;9.96;100.00
24962;BME280;12992;50.884;13.668;2022-09-17T06:38:32;96305.94;;;9.92;100.00
24962;BME280;12992;50.884;13.668;2022-09-17T06:40:58;96309.47;;;9.92;100.00
24962;BME280;12992;50.884;13.668;2022-09-17T06:43:24;96308.38;;;9.88;100.00
24962;BME280;12992;50.884;13.668;2022-09-17T06:45:54;96306.50;;;9.84;100.00
24962;BME280;12992;50.884;13.668;2022-09-17T06:48:21;96306.75;;;9.92;100.00
24962;BME280;12992;50.884;13.668;2022-09-17T06:50:47;96321.63;;;10.10;100.00
24962;BME280;12992;50.884;13.668;2022-09-17T06:53:12;96322.47;;;10.11;100.00
24962;BME280;12992;50.884;13.668;2022-09-17T06:55:38;96315.97;;;10.02;100.00
24962;BME280;12992;50.884;13.668;2022-09-17T06:58:03;96308.38;;;9.99;100.00
24962;BME280;12992;50.884;13.668;2022-09-17T07:00:28;96315.44;;;9.94;100.00
24962;BME280;12992;50.884;13.668;2022-09-17T07:02:58;96306.75;;;9.92;100.00
24962;BME280;12992;50.884;13.668;2022-09-17T07:05:25;96305.94;;;9.87;100.00
24962;BME280;12992;50.884;13.668;2022-09-17T07:07:51;96315.44;;;9.94;100.00
24962;BME280;12992;50.884;13.668;2022-09-17T07:10:17;96302.34;;;9.97;100.00
24962;BME280;12992;50.884;13.668;2022-09-17T07:12:42;96301.59;;;9.86;100.00
24962;BME280;12992;50.884;13.668;2022-09-17T07:15:08;96309.47;;;9.92;100.00
24962;BME280;12992;50.884;13.668;2022-09-17T07:17:36;96324.13;;;9.97;100.00
24962;BME280;12992;50.884;13.668;2022-09-17T07:20:04;96306.22;;;9.85;100.00
24962;BME280;12992;50.884;13.668;2022-09-17T07:22:29;96312.19;;;9.77;100.00
24962;BME280;12992;50.884;13.668;2022-09-17T07:24:54;96321.44;;;9.76;100.00
24962;BME280;12992;50.884;13.668;2022-09-17T07:27:20;96339.94;;;9.74;100.00
24962;BME280;12992;50.884;13.668;2022-09-17T07:29:45;96339.41;;;9.77;100.00
24962;BME280;12992;50.884;13.668;2022-09-17T07:32:11;96341.56;;;9.75;100.00
24962;BME280;12992;50.884;13.668;2022-09-17T07:34:36;96339.94;;;9.79;100.00
24962;BME280;12992;50.884;13.668;2022-09-17T07:37:01;96344.28;;;9.80;100.00
24962;BME280;12992;50.884;13.668;2022-09-17T07:39:27;96360.59;;;9.90;100.00
24962;BME280;12992;50.884;13.668;2022-09-17T07:41:52;96363.88;;;9.82;100.00
24962;BME280;12992;50.884;13.668;2022-09-17T07:44:17;96363.84;;;9.77;100.00
24962;BME280;12992;50.884;13.668;2022-09-17T07:46:43;96372.56;;;9.79;100.00
24962;BME280;12992;50.884;13.668;2022-09-17T07:49:08;96377.44;;;9.87;100.00
24962;BME280;12992;50.884;13.668;2022-09-17T07:51:33;96374.72;;;9.87;100.00
24962;BME280;12992;50.884;13.668;2022-09-17T07:53:59;96381.25;;;9.86;100.00
24962;BME280;12992;50.884;13.668;2022-09-17T07:56:25;96393.22;;;9.80;100.00
24962;BME280;12992;50.884;13.668;2022-09-17T07:58:51;96398.66;;;9.80;100.00
24962;BME280;12992;50.884;13.668;2022-09-17T08:01:17;96397.03;;;9.79;100.00
24962;BME280;12992;50.884;13.668;2022-09-17T08:03:53;96406.28;;;9.83;100.00
24962;BME280;12992;50.884;13.668;2022-09-17T08:06:21;96408.44;;;9.97;100.00
24962;BME280;12992;50.884;13.668;2022-09-17T08:08:47;96404.09;;;10.01;100.00
24962;BME280;12992;50.884;13.668;2022-09-17T08:11:18;96410.31;;;10.11;100.00
24962;BME280;12992;50.884;13.668;2022-09-17T08:13:47;96407.59;;;10.06;100.00
24962;BME280;12992;50.884;13.668;2022-09-17T08:16:12;96410.06;;;10.03;100.00
24962;BME280;12992;50.884;13.668;2022-09-17T08:18:39;96416.59;;;10.02;100.00
24962;BME280;12992;50.884;13.668;2022-09-17T08:21:06;96414.97;;;10.01;100.00
24962;BME280;12992;50.884;13.668;2022-09-17T08:23:34;96410.63;;;10.00;100.00
24962;BME280;12992;50.884;13.668;2022-09-17T08:26:02;96414.41;;;10.04;100.00
24962;BME280;12992;50.884;13.668;2022-09-17T08:28:29;96434.00;;;10.16;100.00
24962;BME280;12992;50.884;13.668;2022-09-17T08:31:00;96428.56;;;10.16;100.00
24962;BME280;12992;50.884;13.668;2022-09-17T08:33:26;96434.78;;;10.21;100.00
24962;BME280;12992;50.884;13.668;2022-09-17T08:35:55;96432.91;;;10.17;100.00
24962;BME280;12992;50.884;13.668;2022-09-17T08:38:34;96438.31;;;10.37;100.00
24962;BME280;12992;50.884;13.668;2022-09-17T08:43:50;96453.81;;;10.42;100.00
24962;BME280;12992;50.884;13.668;2022-09-17T08:46:22;96453.28;;;10.45;100.00
24962;BME280;12992;50.884;13.668;2022-09-17T08:49:03;96458.91;;;10.69;100.00
24962;BME280;12992;50.884;13.668;2022-09-17T08:57:23;96446.81;;;10.95;100.00
24962;BME280;12992;50.884;13.668;2022-09-17T09:00:00;96439.75;;;10.94;100.00
24962;BME280;12992;50.884;13.668;2022-09-17T09:02:40;96445.16;;;11.04;100.00
24962;BME280;12992;50.884;13.668;2022-09-17T09:05:14;96436.44;;;11.02;100.00
24962;BME280;12992;50.884;13.668;2022-09-17T09:07:46;96438.41;;;10.97;100.00
24962;BME280;12992;50.884;13.668;2022-09-17T09:10:22;96443.31;;;10.90;100.00
24962;BME280;12992;50.884;13.668;2022-09-17T09:12:50;96431.38;;;10.75;100.00
24962;BME280;12992;50.884;13.668;2022-09-17T09:15:37;96433.28;;;10.75;100.00
24962;BME280;12992;50.884;13.668;2022-09-17T09:18:34;96445.81;;;10.81;100.00
24962;BME280;12992;50.884;13.668;2022-09-17T09:21:38;96466.56;;;11.31;100.00
24962;BME280;12992;50.884;13.668;2022-09-17T09:24:21;96473.25;;;11.49;100.00
24962;BME280;12992;50.884;13.668;2022-09-17T09:27:13;96476.66;;;11.70;100.00
24962;BME280;12992;50.884;13.668;2022-09-17T09:29:47;96485.28;;;12.22;100.00
24962;BME280;12992;50.884;13.668;2022-09-17T09:32:23;96486.84;;;12.28;100.00
24962;BME280;12992;50.884;13.668;2022-09-17T09:34:53;96475.09;;;12.32;100.00
24962;BME280;12992;50.884;13.668;2022-09-17T09:37:29;96457.81;;;12.13;100.00
24962;BME280;12992;50.884;13.668;2022-09-17T09:40:02;96441.41;;;11.79;100.00
24962;BME280;12992;50.884;13.668;2022-09-17T09:42:34;96424.84;;;11.31;100.00
24962;BME280;12992;50.884;13.668;2022-09-17T09:45:11;96429.06;;;11.13;100.00
24962;BME280;12992;50.884;13.668;2022-09-17T09:50:37;96433.00;;;11.36;100.00
24962;BME280;12992;50.884;13.668;2022-09-17T09:53:24;96470.63;;;12.12;100.00
24962;BME280;12992;50.884;13.668;2022-09-17T09:56:01;96467.91;;;12.89;100.00
24962;BME280;12992;50.884;13.668;2022-09-17T09:58:35;96472.31;;;13.33;100.00
24962;BME280;12992;50.884;13.668;2022-09-17T10:01:02;96437.47;;;13.01;100.00
24962;BME280;12992;50.884;13.668;2022-09-17T10:03:29;96428.88;;;12.65;100.00
24962;BME280;12992;50.884;13.668;2022-09-17T10:06:04;96403.13;;;11.94;100.00
24962;BME280;12992;50.884;13.668;2022-09-17T10:08:36;96401.59;;;11.44;100.00
24962;BME280;12992;50.884;13.668;2022-09-17T10:11:22;96403.22;;;11.05;100.00
24962;BME280;12992;50.884;13.668;2022-09-17T10:13:48;96417.88;;;11.15;100.00
24962;BME280;12992;50.884;13.668;2022-09-17T10:16:21;96457.81;;;11.74;100.00
24962;BME280;12992;50.884;13.668;2022-09-17T10:18:51;96467.56;;;12.48;100.00
24962;BME280;12992;50.884;13.668;2022-09-17T10:21:37;96478.66;;;13.52;100.00
24962;BME280;12992;50.884;13.668;2022-09-17T10:24:11;96524.47;;;14.82;100.00
24962;BME280;12992;50.884;13.668;2022-09-17T10:26:40;96494.84;;;15.25;100.00
24962;BME280;12992;50.884;13.668;2022-09-17T10:29:12;96425.78;;;15.10;100.00
24962;BME280;12992;50.884;13.668;2022-09-17T10:31:57;96372.84;;;13.48;100.00
24962;BME280;12992;50.884;13.668;2022-09-17T10:34:31;96365.25;;;12.64;100.00
24962;BME280;12992;50.884;13.668;2022-09-17T10:36:57;96416.41;;;13.01;100.00
24962;BME280;12992;50.884;13.668;2022-09-17T10:39:30;96456.16;;;14.39;100.00
24962;BME280;12992;50.884;13.668;2022-09-17T10:42:12;96403.41;;;13.69;100.00
24962;BME280;12992;50.884;13.668;2022-09-17T10:44:49;96366.09;;;12.36;100.00
24962;BME280;12992;50.884;13.668;2022-09-17T10:47:23;96347.47;;;11.27;100.00
24962;BME280;12992;50.884;13.668;2022-09-17T10:49:55;96363.31;;;10.75;100.00
24962;BME280;12992;50.884;13.668;2022-09-17T10:52:40;96381.66;;;10.49;100.00
24962;BME280;12992;50.884;13.668;2022-09-17T10:55:30;96396.59;;;10.57;100.00
24962;BME280;12992;50.884;13.668;2022-09-17T11:03:21;96450.72;;;12.12;100.00
24962;BME280;12992;50.884;13.668;2022-09-17T11:11:18;96457.38;;;14.33;100.00
24962;BME280;12992;50.884;13.668;2022-09-17T11:14:19;96432.56;;;14.11;100.00
24962;BME280;12992;50.884;13.668;2022-09-17T11:16:58;96408.97;;;13.82;100.00
24962;BME280;12992;50.884;13.668;2022-09-17T11:20:00;96422.97;;;13.95;100.00
24962;BME280;12992;50.884;13.668;2022-09-17T11:28:47;96369.19;;;13.15;100.00
24962;BME280;12992;50.884;13.668;2022-09-17T11:36:26;96367.50;;;12.09;100.00
24962;BME280;12992;50.884;13.668;2022-09-17T11:38:56;96381.75;;;12.01;100.00
24962;BME280;12992;50.884;13.668;2022-09-17T11:41:31;96414.81;;;12.29;100.00
24962;BME280;12992;50.884;13.668;2022-09-17T11:44:07;96410.84;;;12.40;100.00
24962;BME280;12992;50.884;13.668;2022-09-17T11:46:38;96404.59;;;12.39;100.00
24962;BME280;12992;50.884;13.668;2022-09-17T11:49:16;96404.06;;;12.37;100.00
24962;BME280;12992;50.884;13.668;2022-09-17T11:51:49;96394.69;;;12.19;100.00
24962;BME280;12992;50.884;13.668;2022-09-17T11:54:25;96403.03;;;12.04;100.00
24962;BME280;12992;50.884;13.668;2022-09-17T11:56:59;96405.47;;;12.06;100.00
24962;BME280;12992;50.884;13.668;2022-09-17T11:59:36;96415.94;;;12.23;100.00
24962;BME280;12992;50.884;13.668;2022-09-17T12:02:12;96425.53;;;12.44;100.00
24962;BME280;12992;50.884;13.668;2022-09-17T12:04:54;96422.34;;;12.61;100.00
24962;BME280;12992;50.884;13.668;2022-09-17T12:07:29;96415.56;;;12.58;100.00
24962;BME280;12992;50.884;13.668;2022-09-17T12:12:30;96423.34;;;12.70;100.00
24962;BME280;12992;50.884;13.668;2022-09-17T12:15:05;96432.66;;;12.93;100.00
24962;BME280;12992;50.884;13.668;2022-09-17T12:17:41;96420.31;;;12.95;100.00
24962;BME280;12992;50.884;13.668;2022-09-17T12:20:25;96412.09;;;12.95;100.00
24962;BME280;12992;50.884;13.668;2022-09-17T12:22:53;96383.38;;;12.55;100.00
24962;BME280;12992;50.884;13.668;2022-09-17T12:25:20;96371.94;;;12.29;100.00
24962;BME280;12992;50.884;13.668;2022-09-17T12:28:00;96373.75;;;12.10;100.00
24962;BME280;12992;50.884;13.668;2022-09-17T12:30:37;96363.06;;;11.89;100.00
24962;BME280;12992;50.884;13.668;2022-09-17T12:41:08;96366.44;;;11.42;100.00
24962;BME280;12992;50.884;13.668;2022-09-17T12:49:22;96384.16;;;11.74;100.00
24962;BME280;12992;50.884;13.668;2022-09-17T12:51:59;96387.91;;;11.88;100.00
24962;BME280;12992;50.884;13.668;2022-09-17T13:00:10;96371.91;;;12.05;100.00
24962;BME280;12992;50.884;13.668;2022-09-17T13:11:24;96351.59;;;11.24;100.00
24962;BME280;12992;50.884;13.668;2022-09-17T13:14:41;96369.56;;;11.25;100.00
24962;BME280;12992;50.884;13.668;2022-09-17T13:19:48;96386.59;;;11.80;100.00
24962;BME280;12992;50.884;13.668;2022-09-17T13:22:21;96372.41;;;11.78;100.00
24962;BME280;12992;50.884;13.668;2022-09-17T13:25:19;96357.06;;;11.53;100.00
24962;BME280;12992;50.884;13.668;2022-09-17T13:27:46;96373.25;;;11.74;100.00
24962;BME280;12992;50.884;13.668;2022-09-17T13:30:16;96370.59;;;12.03;100.00
24962;BME280;12992;50.884;13.668;2022-09-17T13:32:47;96367.25;;;12.06;100.00
24962;BME280;12992;50.884;13.668;2022-09-17T13:37:57;96364.84;;;12.28;100.00
24962;BME280;12992;50.884;13.668;2022-09-17T13:40:31;96368.16;;;12.49;100.00
24962;BME280;12992;50.884;13.668;2022-09-17T13:43:06;96389.91;;;13.02;100.00
24962;BME280;12992;50.884;13.668;2022-09-17T13:45:33;96394.34;;;13.54;100.00
24962;BME280;12992;50.884;13.668;2022-09-17T13:48:20;96375.50;;;13.53;100.00
24962;BME280;12992;50.884;13.668;2022-09-17T13:50:48;96358.03;;;13.35;100.00
24962;BME280;12992;50.884;13.668;2022-09-17T13:55:43;96320.97;;;12.86;100.00
24962;BME280;12992;50.884;13.668;2022-09-17T14:13:54;96324.34;;;12.59;100.00
24962;BME280;12992;50.884;13.668;2022-09-17T14:30:13;96306.78;;;12.65;100.00
24962;BME280;12992;50.884;13.668;2022-09-17T14:32:44;96284.34;;;12.26;100.00
24962;BME280;12992;50.884;13.668;2022-09-17T14:37:51;96282.78;;;12.19;100.00
24962;BME280;12992;50.884;13.668;2022-09-17T14:40:19;96314.19;;;12.41;100.00
24962;BME280;12992;50.884;13.668;2022-09-17T14:42:45;96309.25;;;12.43;100.00
24962;BME280;12992;50.884;13.668;2022-09-17T14:45:20;96303.88;;;12.38;100.00
24962;BME280;12992;50.884;13.668;2022-09-17T14:47:47;96299.72;;;12.16;100.00
24962;BME280;12992;50.884;13.668;2022-09-17T14:50:23;96289.88;;;11.97;100.00
24962;BME280;12992;50.884;13.668;2022-09-17T14:52:52;96284.06;;;11.74;100.00
24962;BME280;12992;50.884;13.668;2022-09-17T14:55:23;96286.16;;;11.58;100.00
24962;BME280;12992;50.884;13.668;2022-09-17T14:57:55;96281.06;;;11.47;100.00
24962;BME280;12992;50.884;13.668;2022-09-17T15:00:23;96283.34;;;11.34;100.00
24962;BME280;12992;50.884;13.668;2022-09-17T15:02:55;96270.88;;;11.28;100.00
24962;BME280;12992;50.884;13.668;2022-09-17T15:10:53;96281.22;;;11.31;100.00
24962;BME280;12992;50.884;13.668;2022-09-17T15:13:24;96293.66;;;11.43;100.00
24962;BME280;12992;50.884;13.668;2022-09-17T15:16:00;96291.13;;;11.51;100.00
24962;BME280;12992;50.884;13.668;2022-09-17T15:18:36;96305.13;;;11.69;100.00
24962;BME280;12992;50.884;13.668;2022-09-17T15:21:04;96290.31;;;11.75;100.00
24962;BME280;12992;50.884;13.668;2022-09-17T15:23:33;96287.25;;;11.86;100.00
24962;BME280;12992;50.884;13.668;2022-09-17T15:26:00;96293.53;;;12.11;100.00
24962;BME280;12992;50.884;13.668;2022-09-17T15:28:35;96302.75;;;12.39;100.00
24962;BME280;12992;50.884;13.668;2022-09-17T15:31:04;96310.03;;;12.67;100.00